Friday, July 25, 2014, 7:02 PM EDT

KPHF, Williamsburg International Airport

Location: Newport News, VA, United States Lat: 37.133
Local Time: 7:02 PM EDT (23:02 GMT) Lon: -76.5
Time Zone: US/Eastern Elev: 42 ft

Show me the last for .
Show Decoded

2014-07-25 17:54 METAR KPHF 252154Z 08007KT 10SM BKN060 28/16 A3002 RMK AO2 SLP164 T02780161 =
2014-07-25 16:54 METAR KPHF 252054Z 07005KT 10SM FEW049 SCT060 29/16 A3000 RMK AO2 SLP157
                 T02940161 58013 =
2014-07-25 15:54 METAR KPHF 251954Z 02004KT 10SM CLR 29/16 A3001 RMK AO2 SLP162 T02940156 =
2014-07-25 14:54 METAR KPHF 251854Z VRB03KT 10SM CLR 29/15 A3003 =
2014-07-25 13:54 METAR KPHF 251754Z VRB04KT 10SM CLR 29/14 A3004 RMK AO2 SLP170 T02890144 10294
                 20239 58007 =
2014-07-25 12:54 METAR KPHF 251654Z 10SM CLR 28/14 A3006 RMK AO2 SLP178 T02830144 =
2014-07-25 11:54 METAR KPHF 251554Z 10SM CLR 28/15 A3006 RMK AO2 SLP178 T02830150 =
2014-07-25 10:54 METAR KPHF 251454Z 02008KT 10SM CLR 27/14 A3006 RMK AO2 SLP178 T02720144 51008 =
2014-07-25 09:54 METAR KPHF 251354Z 01009KT 10SM CLR 27/16 A3005 RMK AO2 SLP177 T02670161 =
2014-07-25 08:54 METAR KPHF 251254Z 01005KT 10SM CLR 26/19 A3005 RMK AO2 SLP176 T02560189 =
2014-07-25 07:54 METAR KPHF 251154Z 34005KT 10SM CLR 24/19 A3004 RMK AO2 SLP170 70192 T02390189
                 10239 20211 53023 =
2014-07-25 06:54 METAR KPHF 251054Z 33004KT 10SM CLR 22/18 A3001 RMK AO2 SLP162 T02170183 =
2014-07-25 05:54 METAR KPHF 250954Z 34003KT 10SM CLR 22/18 A2998 RMK AO2 SLP152 T02170183 =
2014-07-25 05:35 METAR KPHF 250935Z 34003KT 10SM FEW003 22/19 A2998 RMK AO2 T02170189 =
2014-07-25 04:54 METAR KPHF 250854Z 33004KT 10SM BKN050 22/19 A2997 RMK AO2 SLP147 T02220194
                 51009 =
2014-07-25 03:54 METAR KPHF 250754Z 31005KT 9SM BKN055 22/19 A2996 RMK AO2 SLP145 T02220194 =
2014-07-25 02:54 METAR KPHF 250654Z 32005KT 10SM OVC045 23/20 A2996 RMK AO2 SLP143 T02280200 =
2014-07-25 01:54 METAR KPHF 250554Z 32005KT 10SM FEW031 OVC039 23/21 A2994 RMK AO2 SLP138 60027
                 T02330206 10244 20233 53008 =
2014-07-25 01:07 METAR KPHF 250507Z 32005KT 10SM SCT022 OVC039 23/21 A2993 =
2014-07-25 00:54 METAR KPHF 250454Z 33005KT 10SM BKN021 BKN030 OVC039 23/21 A2993 RMK AO2 RAE00
                 SLP134 P0000 T02330206 403060233 =
2014-07-25 00:42 METAR KPHF 250442Z 00000KT 10SM BKN021 OVC030 24/21 A2993 RMK AO2 RAE00 P0000
                 T02390206 =
2014-07-25 00:17 METAR KPHF 250417Z 33003KT 10SM SCT018 OVC030 23/21 A2992 RMK AO2 RAE00 P0000
                 T02330206 =
2014-07-24 23:54 METAR KPHF 250354Z 00000KT 10SM -RA FEW006 OVC016 23/21 A2991 =
2014-07-24 23:40 METAR KPHF 250340Z 33005KT 6SM -RA BKN009 OVC014 24/21 A2991 =
2014-07-24 23:19 METAR KPHF 250319Z 35004KT 5SM RA SCT005 BKN010 OVC013 24/21 A2991 RMK AO2 RAB03
                 P0001 T02390211 =
2014-07-24 22:54 METAR KPHF 250254Z 34006KT 9SM BKN008 OVC025 24/22 A2992 RMK AO2 RAE46 CIG
                 004V017 SLP130 P0003 60024 T02390217 51007 =
2014-07-24 22:45 METAR KPHF 250245Z 33007KT 9SM -RA BKN011 BKN025 OVC070 24/22 A2992 RMK AO2
                 P0003 T02390217 =
2014-07-24 22:32 METAR KPHF 250232Z 31003KT 7SM -RA SCT011 BKN025 OVC110 24/21 A2992 RMK AO2
                 P0003 T02390211 =
2014-07-24 22:25 METAR KPHF 250225Z 00000KT 6SM -RA BR BKN012 BKN025 OVC085 24/22 A2992 RMK AO2
                 P0003 T02390217 =
2014-07-24 21:54 METAR KPHF 250154Z 34004KT 4SM RA BR BKN095 OVC110 24/22 A2993 RMK AO2 SLP133
                 P0015 T02390217 =
2014-07-24 20:54 METAR KPHF 250054Z 10007KT 7SM RA BKN120 24/22 A2990 RMK AO2 SLP123 P0006
                 T02390217 =
2014-07-24 19:54 METAR KPHF 242354Z AUTO 04007KT 5SM RA BR FEW049 BKN095 OVC110 23/21 A2990 RMK
                 AO2 SLP124 P0043 60125 T02330211 10306 20233 53014 TSNO =
2014-07-24 19:29 METAR KPHF 242329Z AUTO 03006KT 3SM +RA BR FEW008 BKN032 OVC040 23/21 A2990 RMK
                 AO2 P0037 T02330211 TSNO =
2014-07-24 19:27 METAR KPHF 242327Z AUTO 02008KT 2 1/2SM +RA BR FEW008 BKN029 OVC037 23/21 A2990
                 RMK AO2 P0036 T02330211 TSNO =
2014-07-24 19:21 METAR KPHF 242321Z AUTO 01009KT 1 1/4SM +RA BR FEW012 BKN026 OVC035 23/21 A2990
                 RMK AO2 P0034 T02330211 TSNO =
2014-07-24 19:13 METAR KPHF 242313Z AUTO 36013G17KT 1 3/4SM +RA FEW014 SCT023 OVC035 24/21 A2989
                 RMK AO2 P0018 T02390211 TSNO =

Support USWX by starting your Amazon purchase here.